Pacific Pilot IV — CZ3537 — position and weather

sailwx.info

Track history (hours):
 
Tides and Currents Weather Stations Pressure Air Temp Water Temp Dewpoint Dewpoint Depression Visibility Wind Speed Wind Dir Waves Ship Positions

Pacific Pilot IV

Last reported at 2017-Oct-17 13:00 UTC. Time now 2017-Oct-17 13:26 UTC.
Position N 54°18' W 130°21'.

Length 20 m.

Type: Pilot. MMSI: 316006722.

Date/timePositionNaut miles runAvg speedWind from/ knotsBaromVisibWave heightAir tempDewpointWater temp
2017-Oct-17 13:00N 54°18' W 130°21'0 0.0
2017-Oct-17 12:28N 54°18' W 130°21'0 0.0
2017-Oct-17 11:56N 54°18' W 130°21'0 0.0
2017-Oct-17 11:30N 54°18' W 130°21'0 0.0
2017-Oct-17 11:00N 54°18' W 130°21'0 0.0
2017-Oct-17 10:30N 54°18' W 130°21'0 0.0
2017-Oct-17 10:00N 54°18' W 130°21'0 0.0
2017-Oct-17 09:30N 54°18' W 130°21'0 0.0
2017-Oct-17 09:01N 54°18' W 130°21'0 0.0
2017-Oct-17 08:30N 54°18' W 130°21'0 0.0
2017-Oct-17 08:00N 54°18' W 130°21'0 0.0
2017-Oct-17 07:30N 54°18' W 130°21'0 0.0
2017-Oct-17 07:00N 54°18' W 130°21'0 0.0
2017-Oct-17 06:30N 54°18' W 130°21'0 0.0
2017-Oct-17 06:00N 54°18' W 130°21'4 8.7
2017-Oct-17 05:30N 54°13' W 130°24'918.1
2017-Oct-17 05:00N 54°16' W 130°39'918.2
2017-Oct-17 04:30N 54°19' W 130°53'4 8.4
2017-Oct-17 04:00N 54°18' W 130°47'917.1
2017-Oct-17 03:31N 54°15' W 130°33'612.9
2017-Oct-17 03:00N 54°16' W 130°22'1 2.7
2017-Oct-17 02:30N 54°18' W 130°21'0 0.0
2017-Oct-17 02:00N 54°18' W 130°21'0 0.0
2017-Oct-17 01:30N 54°18' W 130°21'0 0.0
2017-Oct-17 01:00N 54°18' W 130°21'0 0.0
2017-Oct-17 00:30N 54°18' W 130°21'1 2.2
2017-Oct-17 00:00N 54°17' W 130°22'714.3
2017-Oct-16 23:30N 54°12' W 130°31'714.0
2017-Oct-16 23:00N 54°16' W 130°22'1 2.7
2017-Oct-16 22:29N 54°18' W 130°21'0 0.0
2017-Oct-16 22:00N 54°18' W 130°21'0 0.0
2017-Oct-16 21:30N 54°18' W 130°21'0 0.0
2017-Oct-16 21:00N 54°18' W 130°21'0 0.0
2017-Oct-16 20:30N 54°18' W 130°21'0 0.0
2017-Oct-16 20:00N 54°18' W 130°21'0 0.0
2017-Oct-16 19:27N 54°18' W 130°21'0 0.0
2017-Oct-16 19:00N 54°18' W 130°21'0 0.0
2017-Oct-16 18:30N 54°18' W 130°21'0 0.0
2017-Oct-16 18:00N 54°18' W 130°21'0 0.0
2017-Oct-16 17:29N 54°18' W 130°21'0 0.0
2017-Oct-16 17:00N 54°18' W 130°21'0 0.0
2017-Oct-16 16:30N 54°18' W 130°21'0 0.0
2017-Oct-16 15:59N 54°18' W 130°21'0 0.0
2017-Oct-16 15:30N 54°18' W 130°21'0 0.0
2017-Oct-16 15:00N 54°18' W 130°21'0 0.0
2017-Oct-16 13:57N 54°18' W 130°21'0 0.0
2017-Oct-16 13:30N 54°18' W 130°21'0 0.0
2017-Oct-16 13:00N 54°18' W 130°21'0 0.0
2017-Oct-16 12:30N 54°18' W 130°21'0 0.0
2017-Oct-16 12:00N 54°18' W 130°21'0 0.0
2017-Oct-16 11:27N 54°18' W 130°21'0 0.0
2017-Oct-16 10:50N 54°18' W 130°21'0 0.0
2017-Oct-16 10:28N 54°18' W 130°21'0 0.0
2017-Oct-16 10:00N 54°18' W 130°21'0 0.0
2017-Oct-16 09:30N 54°18' W 130°21'0 0.0
2017-Oct-16 09:00N 54°18' W 130°21'0 0.0
2017-Oct-16 08:31N 54°18' W 130°21'0 0.0
2017-Oct-16 08:00N 54°18' W 130°21'0 0.0
2017-Oct-16 07:29N 54°18' W 130°21'0 0.0
2017-Oct-16 07:00N 54°18' W 130°21'0 0.0
2017-Oct-16 06:30N 54°18' W 130°21'0 0.0
2017-Oct-16 06:00N 54°18' W 130°21'0 0.0
2017-Oct-16 05:30N 54°18' W 130°21'0 0.0
2017-Oct-16 05:00N 54°18' W 130°21'0 0.0
2017-Oct-16 04:30N 54°18' W 130°21'0 0.0
2017-Oct-16 04:01N 54°18' W 130°21'0 0.0
2017-Oct-16 03:30N 54°18' W 130°21'1 2.8
2017-Oct-16 03:00N 54°19' W 130°23'714.3
2017-Oct-16 02:30N 54°18' W 130°35'815.7
2017-Oct-16 02:00N 54°16' W 130°48'4 7.6
2017-Oct-16 01:30N 54°13' W 130°46'0 0.4
2017-Oct-16 01:00N 54°12' W 130°46'0 0.0
2017-Oct-16 00:30N 54°12' W 130°46'0 0.0
2017-Oct-16 00:00N 54°12' W 130°46'0 0.0
2017-Oct-15 23:31N 54°12' W 130°46'0 0.0
2017-Oct-15 23:01N 54°12' W 130°46'0 0.0
2017-Oct-15 22:31N 54°12' W 130°46'0 0.0
2017-Oct-15 22:00N 54°12' W 130°46'3 6.7
2017-Oct-15 21:30N 54°16' W 130°47'4 7.2
2017-Oct-15 21:00N 54°18' W 130°52'612.4
2017-Oct-15 20:30N 54°15' W 130°43'612.7
2017-Oct-15 20:00N 54°13' W 130°32'612.4
2017-Oct-15 19:30N 54°12' W 130°22'612.0
2017-Oct-15 19:00N 54°18' W 130°22'0 0.5
2017-Oct-15 18:30N 54°18' W 130°21'0 0.0
2017-Oct-15 18:00N 54°18' W 130°21'0 0.0
2017-Oct-15 17:31N 54°18' W 130°21'0 0.0
2017-Oct-15 17:00N 54°18' W 130°21'2 4.1
2017-Oct-15 16:30N 54°19' W 130°19'2 4.1
2017-Oct-15 16:00N 54°18' W 130°21'0 0.0
2017-Oct-15 15:30N 54°18' W 130°21'0 0.0
2017-Oct-15 15:00N 54°18' W 130°21'6 5.9
2017-Oct-15 14:00N 54°18' W 130°31'916.1
2017-Oct-15 13:28N 54°16' W 130°46'4 9.3
2017-Oct-15 13:00N 54°19' W 130°52'714.5
2017-Oct-15 12:30N 54°15' W 130°41'816.2
2017-Oct-15 12:00N 54°14' W 130°27'510.8
2017-Oct-15 11:30N 54°18' W 130°21'0 0.1
2017-Oct-15 11:00N 54°18' W 130°21'0 0.0
2017-Oct-15 10:30N 54°18' W 130°21'0 0.0
2017-Oct-15 10:00N 54°18' W 130°21'0 0.0
2017-Oct-15 09:30N 54°18' W 130°21'0 0.0
2017-Oct-15 09:00N 54°18' W 130°21'0 0.0
2017-Oct-15 08:30N 54°18' W 130°21'0 0.0
2017-Oct-15 08:00N 54°18' W 130°21'0 0.0
2017-Oct-15 07:31N 54°18' W 130°21'0 0.0
2017-Oct-15 07:00N 54°18' W 130°21'0 0.0
2017-Oct-15 06:30N 54°18' W 130°21'0 0.0
2017-Oct-15 06:00N 54°18' W 130°21'0 0.0
2017-Oct-15 05:31N 54°18' W 130°21'0 0.0
2017-Oct-15 05:00N 54°18' W 130°21'0 0.0
2017-Oct-15 04:30N 54°18' W 130°21'0 0.0
2017-Oct-15 04:00N 54°18' W 130°21'0 0.0
2017-Oct-15 03:30N 54°18' W 130°21'0 0.0
2017-Oct-15 03:00N 54°18' W 130°21'0 0.0
2017-Oct-15 02:30N 54°18' W 130°21'0 0.1
2017-Oct-15 01:59N 54°18' W 130°21'0 0.0
2017-Oct-15 01:30N 54°18' W 130°21'0 1.0
2017-Oct-15 01:00N 54°18' W 130°22'5 9.7
2017-Oct-15 00:30N 54°19' W 130°30'612.4
2017-Oct-15 00:00N 54°19' W 130°40'612.8
2017-Oct-14 23:30N 54°19' W 130°51'510.2
2017-Oct-14 23:00N 54°16' W 130°44'612.0
2017-Oct-14 22:30N 54°15' W 130°34'713.5
2017-Oct-14 22:01N 54°14' W 130°23'4 7.9
2017-Oct-14 21:30N 54°18' W 130°21'0 0.0
2017-Oct-14 21:00N 54°18' W 130°21'0 0.0
2017-Oct-14 20:30N 54°18' W 130°21'0 0.0
2017-Oct-14 20:00N 54°18' W 130°21'0 0.0
2017-Oct-14 19:30N 54°18' W 130°21'0 0.0
2017-Oct-14 19:00N 54°18' W 130°21'0 0.0
2017-Oct-14 18:30N 54°18' W 130°21'0 0.0
2017-Oct-14 18:00N 54°18' W 130°21'0 0.0
2017-Oct-14 17:30N 54°18' W 130°21'0 0.0
2017-Oct-14 17:00N 54°18' W 130°21'0 0.0
2017-Oct-14 16:30N 54°18' W 130°21'0 0.0
2017-Oct-14 16:00N 54°18' W 130°21'0 0.0
2017-Oct-14 15:30N 54°18' W 130°21'0 0.0
2017-Oct-14 15:00N 54°18' W 130°21'0 0.0
2017-Oct-14 14:30N 54°18' W 130°21'0 0.0
2017-Oct-14 14:00N 54°18' W 130°21'0 0.0
2017-Oct-14 13:30N 54°18' W 130°21'0 0.0
2017-Oct-14 12:56N 54°18' W 130°21'0 0.0
2017-Oct-14 12:29N 54°18' W 130°21'0 0.0
2017-Oct-14 12:00N 54°18' W 130°21'0 0.0
2017-Oct-14 11:30N 54°18' W 130°21'0 0.0
2017-Oct-14 11:00N 54°18' W 130°21'0 0.0
2017-Oct-14 10:30N 54°18' W 130°21'0 0.0
2017-Oct-14 09:59N 54°18' W 130°21'0 0.0
2017-Oct-14 09:29N 54°18' W 130°21'0 0.0
2017-Oct-14 09:00N 54°18' W 130°21'0 0.0
2017-Oct-14 08:30N 54°18' W 130°21'0 0.0
2017-Oct-14 08:00N 54°18' W 130°21'0 0.0
2017-Oct-14 07:30N 54°18' W 130°21'0 0.0
2017-Oct-14 07:00N 54°18' W 130°21'0 0.0
2017-Oct-14 06:30N 54°18' W 130°21'0 0.0
2017-Oct-14 06:00N 54°18' W 130°21'0 0.0
2017-Oct-14 05:30N 54°18' W 130°21'0 0.0
2017-Oct-14 05:00N 54°18' W 130°21'0 0.0
2017-Oct-14 04:30N 54°18' W 130°21'0 0.0
2017-Oct-14 04:00N 54°18' W 130°21'0 0.0
2017-Oct-14 03:30N 54°18' W 130°21'0 0.0
2017-Oct-14 03:00N 54°18' W 130°21'0 0.0
2017-Oct-14 02:30N 54°18' W 130°21'0 0.0
2017-Oct-14 02:00N 54°18' W 130°21'0 0.0
2017-Oct-14 01:30N 54°18' W 130°21'0 0.0
2017-Oct-14 01:00N 54°18' W 130°21'0 0.0
2017-Oct-14 00:30N 54°18' W 130°21'0 0.0
2017-Oct-13 23:59N 54°18' W 130°21'0 0.0
2017-Oct-13 23:30N 54°18' W 130°21'0 0.0
2017-Oct-13 23:00N 54°18' W 130°21'0 0.0
2017-Oct-13 22:30N 54°18' W 130°21'0 0.0
2017-Oct-13 22:00N 54°18' W 130°21'2 4.1
2017-Oct-13 21:30N 54°19' W 130°24'611.5
2017-Oct-13 21:00N 54°13' W 130°25'4 8.5
2017-Oct-13 20:30N 54°13' W 130°32'510.1
2017-Oct-13 20:00N 54°15' W 130°40'610.6
2017-Oct-13 19:29N 54°18' W 130°48'1 3.0
2017-Oct-13 19:00N 54°18' W 130°46'816.5
2017-Oct-13 18:30N 54°15' W 130°33'713.6
2017-Oct-13 18:01N 54°14' W 130°21'3 5.2
2017-Oct-13 17:23N 54°18' W 130°21'0 0.0
2017-Oct-13 17:00N 54°18' W 130°21'0 0.0
2017-Oct-13 16:28N 54°18' W 130°21'0 0.1
2017-Oct-13 16:00N 54°18' W 130°21'0 0.0
2017-Oct-13 15:30N 54°18' W 130°21'0 0.0
2017-Oct-13 15:00N 54°18' W 130°21'0 0.0
2017-Oct-13 14:30N 54°18' W 130°21'0 0.0
2017-Oct-13 14:00N 54°18' W 130°21'0 0.0
2017-Oct-13 13:30N 54°18' W 130°21'0 0.0
2017-Oct-13 13:00N 54°18' W 130°21'0 0.0
2017-Oct-13 12:30N 54°18' W 130°21'0 0.0
2017-Oct-13 12:00N 54°18' W 130°21'0 0.0
2017-Oct-13 11:27N 54°18' W 130°21'0 0.0
2017-Oct-13 10:59N 54°18' W 130°21'0 0.0
2017-Oct-13 10:30N 54°18' W 130°21'0 0.0
2017-Oct-13 10:00N 54°18' W 130°21'0 0.0
2017-Oct-13 09:30N 54°18' W 130°21'0 0.0
2017-Oct-13 09:00N 54°18' W 130°21'0 0.0
2017-Oct-13 08:30N 54°18' W 130°21'0 0.0
2017-Oct-13 08:00N 54°18' W 130°21'0 0.0
2017-Oct-13 07:30N 54°18' W 130°21'0 0.0
2017-Oct-13 07:00N 54°18' W 130°21'0 0.0
2017-Oct-13 06:30N 54°18' W 130°21'0 0.0
2017-Oct-13 06:00N 54°18' W 130°21'0 0.0
2017-Oct-13 05:30N 54°18' W 130°21'0 0.0
2017-Oct-13 05:00N 54°18' W 130°21'0 0.0
2017-Oct-13 04:30N 54°18' W 130°21'0 0.0
2017-Oct-13 04:00N 54°18' W 130°21'0 0.0
2017-Oct-13 03:30N 54°18' W 130°21'0 0.0
2017-Oct-13 03:00N 54°18' W 130°21'0 0.0
2017-Oct-13 02:30N 54°18' W 130°21'0 0.0
2017-Oct-13 02:00N 54°18' W 130°21'0 0.0
2017-Oct-13 01:30N 54°18' W 130°21'0 0.0
2017-Oct-13 01:00N 54°18' W 130°21'0 0.0
2017-Oct-13 00:30N 54°18' W 130°21'0 0.0
2017-Oct-13 00:00N 54°18' W 130°21'0 0.0
2017-Oct-12 23:30N 54°18' W 130°21'0 0.0
2017-Oct-12 23:00N 54°18' W 130°21'0 0.0
2017-Oct-12 22:30N 54°18' W 130°21'0 0.0
2017-Oct-12 22:00N 54°18' W 130°21'0 0.0
2017-Oct-12 21:30N 54°18' W 130°21'0 0.0
2017-Oct-12 21:00N 54°18' W 130°21'0 0.0
2017-Oct-12 20:30N 54°18' W 130°21'0 0.0
2017-Oct-12 20:00N 54°18' W 130°21'0 0.0
2017-Oct-12 19:30N 54°18' W 130°21'0 0.0
2017-Oct-12 19:00N 54°18' W 130°21'0 0.0
2017-Oct-12 18:30N 54°18' W 130°21'0 0.0
2017-Oct-12 18:00N 54°18' W 130°21'0 0.0
2017-Oct-12 17:30N 54°18' W 130°21'0 0.0
2017-Oct-12 17:00N 54°18' W 130°21'0 0.0
2017-Oct-12 16:30N 54°18' W 130°21'0 0.0
2017-Oct-12 16:00N 54°18' W 130°21'0 0.0
2017-Oct-12 15:30N 54°18' W 130°21'0 0.0
2017-Oct-12 15:00N 54°18' W 130°21'0 0.0
2017-Oct-12 14:30N 54°18' W 130°21'0 0.0
2017-Oct-12 14:00N 54°18' W 130°21'0 0.0
2017-Oct-12 13:30N 54°18' W 130°21'0 0.0
2017-Oct-12 13:00N 54°18' W 130°21'0 0.0
2017-Oct-12 12:30N 54°18' W 130°21'0 0.0
2017-Oct-12 12:00N 54°18' W 130°21'0 0.0
2017-Oct-12 11:30N 54°18' W 130°21'0 0.0
2017-Oct-12 11:00N 54°18' W 130°21'0 0.0
2017-Oct-12 10:30N 54°18' W 130°21'0 0.0
2017-Oct-12 10:00N 54°18' W 130°21'0 0.0
2017-Oct-12 09:28N 54°18' W 130°21'0 0.0
2017-Oct-12 09:00N 54°18' W 130°21'0 0.0
2017-Oct-12 08:30N 54°18' W 130°21'0 0.0
2017-Oct-12 08:00N 54°18' W 130°21'0 0.0
2017-Oct-12 07:30N 54°18' W 130°21'0 0.0
2017-Oct-12 07:00N 54°18' W 130°21'0 0.0
2017-Oct-12 06:30N 54°18' W 130°21'0 0.0
2017-Oct-12 06:00N 54°18' W 130°21'0 0.0
2017-Oct-12 05:30N 54°18' W 130°21'0 0.0
2017-Oct-12 05:00N 54°18' W 130°21'0 0.0
2017-Oct-12 04:30N 54°18' W 130°21'0 0.0
2017-Oct-12 04:00N 54°18' W 130°21'0 0.0
2017-Oct-12 03:30N 54°18' W 130°21'0 0.0
2017-Oct-12 03:00N 54°18' W 130°21'0 0.0
2017-Oct-12 02:30N 54°18' W 130°21'0 0.0
2017-Oct-12 02:00N 54°18' W 130°21'0 0.0
2017-Oct-12 01:30N 54°18' W 130°21'0 0.0
2017-Oct-12 01:00N 54°18' W 130°21'0 0.0
2017-Oct-12 00:30N 54°18' W 130°21'0 0.0
2017-Oct-12 00:00N 54°18' W 130°21'0 0.0
2017-Oct-11 23:30N 54°18' W 130°21'0 0.0
2017-Oct-11 23:00N 54°18' W 130°21'0 0.0
2017-Oct-11 22:30N 54°18' W 130°21'0 0.0
2017-Oct-11 22:00N 54°18' W 130°21'0 0.0
2017-Oct-11 21:30N 54°18' W 130°21'0 0.0
2017-Oct-11 21:00N 54°18' W 130°21'0 0.0
2017-Oct-11 20:30N 54°18' W 130°21'0 0.0
2017-Oct-11 20:00N 54°18' W 130°21'0 0.0
2017-Oct-11 19:30N 54°18' W 130°21'0 0.0
2017-Oct-11 19:00N 54°18' W 130°21'0 0.0
2017-Oct-11 18:30N 54°18' W 130°21'0 0.0
2017-Oct-11 18:00N 54°18' W 130°21'0 0.0
2017-Oct-11 17:30N 54°18' W 130°21'0 0.0
2017-Oct-11 17:00N 54°18' W 130°21'0 0.0
2017-Oct-11 00:00N 54°18' W 130°21'0 0.0
2017-Oct-10 23:30N 54°18' W 130°21'0 0.0
2017-Oct-10 23:00N 54°18' W 130°21'0 0.0
2017-Oct-10 22:30N 54°18' W 130°21'0 0.0
2017-Oct-10 22:00N 54°18' W 130°21'0 0.0
2017-Oct-10 21:30N 54°18' W 130°21'0 0.0
2017-Oct-10 21:00N 54°18' W 130°21'0 0.0
2017-Oct-10 20:30N 54°18' W 130°21'0 0.0
2017-Oct-10 20:00N 54°18' W 130°21'0 0.0
2017-Oct-10 19:30N 54°18' W 130°21'0 0.0
2017-Oct-10 19:00N 54°18' W 130°21'0 0.0
2017-Oct-10 18:30N 54°18' W 130°21'0 0.0
2017-Oct-10 17:52N 54°18' W 130°21'0 0.0
2017-Oct-10 17:30N 54°18' W 130°21'0 0.0
2017-Oct-10 17:00N 54°18' W 130°21'0 0.0
2017-Oct-10 16:30N 54°18' W 130°21'0 0.0
2017-Oct-10 16:00N 54°18' W 130°21'0 0.0
2017-Oct-10 15:30N 54°18' W 130°21'0 0.0
2017-Oct-10 15:00N 54°18' W 130°21'0 0.0
2017-Oct-10 14:00N 54°18' W 130°21'0 0.0
2017-Oct-10 13:30N 54°18' W 130°21'0 0.0
2017-Oct-10 13:00N 54°18' W 130°21'0 0.0
2017-Oct-10 12:30N 54°18' W 130°21'0 0.0
2017-Oct-10 12:00N 54°18' W 130°21'0 0.0
2017-Oct-10 11:30N 54°18' W 130°21'0 0.0
2017-Oct-10 11:00N 54°18' W 130°21'0 0.0
2017-Oct-10 10:30N 54°18' W 130°21'0 0.0
2017-Oct-10 10:00N 54°18' W 130°21'0 0.0
2017-Oct-10 09:30N 54°18' W 130°21'0 0.0
2017-Oct-10 09:00N 54°18' W 130°21'0 0.0
2017-Oct-10 08:04N 54°18' W 130°21'0 0.0
2017-Oct-10 07:59N 54°18' W 130°21'0 0.0
2017-Oct-10 07:30N 54°18' W 130°21'0 0.0
2017-Oct-10 07:00N 54°18' W 130°21'0 0.0
2017-Oct-10 06:30N 54°18' W 130°21'0 0.0
2017-Oct-10 06:00N 54°18' W 130°21'0 0.0
2017-Oct-10 05:30N 54°18' W 130°21'0 0.0
2017-Oct-10 05:00N 54°18' W 130°21'0 0.0
2017-Oct-10 04:30N 54°18' W 130°21'0 0.0
2017-Oct-10 04:00N 54°18' W 130°21'0 0.0
2017-Oct-10 03:24N 54°18' W 130°21'0 0.0
2017-Oct-10 03:00N 54°18' W 130°21'0 0.0
2017-Oct-10 02:30N 54°18' W 130°21'0 0.0
2017-Oct-10 02:00N 54°18' W 130°21'0 0.0
2017-Oct-10 01:30N 54°18' W 130°21'0 0.0
2017-Oct-10 01:00N 54°18' W 130°21'0 0.0
2017-Oct-10 00:26N 54°18' W 130°21'0 0.0
2017-Oct-10 00:00N 54°18' W 130°21'0 0.0
2017-Oct-09 23:30N 54°18' W 130°21'0 0.0
2017-Oct-09 22:57N 54°18' W 130°21'0 0.0
2017-Oct-09 22:30N 54°18' W 130°21'0 0.0
2017-Oct-09 22:00N 54°18' W 130°21'0 0.0
2017-Oct-09 21:30N 54°18' W 130°21'0 0.0
2017-Oct-09 21:00N 54°18' W 130°21'0 0.0
2017-Oct-09 19:32N 54°18' W 130°21'0 0.0
2017-Oct-09 19:30N 54°18' W 130°21'0 0.0
2017-Oct-09 18:57N 54°18' W 130°21'0 0.0
2017-Oct-09 18:27N 54°18' W 130°21'0 0.0
2017-Oct-09 17:59N 54°18' W 130°21'0 0.0
2017-Oct-09 17:29N 54°18' W 130°21'0 0.0
2017-Oct-09 16:58N 54°18' W 130°21'0 0.0
2017-Oct-09 16:30N 54°18' W 130°21'0 0.0
2017-Oct-09 15:50N 54°18' W 130°21'0 0.0
2017-Oct-09 15:30N 54°18' W 130°21'0 0.0
2017-Oct-09 15:00N 54°18' W 130°21'0 0.0
2017-Oct-09 14:30N 54°18' W 130°21'0 0.0
2017-Oct-09 14:00N 54°18' W 130°21'0 0.0
2017-Oct-09 13:30N 54°18' W 130°21'0 0.0
2017-Oct-09 13:00N 54°18' W 130°21'0 0.0
2017-Oct-09 12:30N 54°18' W 130°21'0 0.0
2017-Oct-09 12:00N 54°18' W 130°21'0 0.0
2017-Oct-09 11:29N 54°18' W 130°21'0 0.0
2017-Oct-09 11:00N 54°18' W 130°21'0 0.0
2017-Oct-09 10:30N 54°18' W 130°21'0 0.0
2017-Oct-09 09:59N 54°18' W 130°21'0 0.0
2017-Oct-09 09:30N 54°18' W 130°21'0 0.0
2017-Oct-09 08:59N 54°18' W 130°21'0 0.0
2017-Oct-09 08:30N 54°18' W 130°21'0 0.0
2017-Oct-09 08:00N 54°18' W 130°21'0 0.0
2017-Oct-09 07:24N 54°18' W 130°21'0 0.0
2017-Oct-09 07:00N 54°18' W 130°21'0 0.0
2017-Oct-09 06:30N 54°18' W 130°21'0 0.0
2017-Oct-09 06:00N 54°18' W 130°21'0 0.0
2017-Oct-09 05:30N 54°18' W 130°21'0 0.0
2017-Oct-09 05:00N 54°18' W 130°21'0 0.0
2017-Oct-09 04:30N 54°18' W 130°21'0 0.0
2017-Oct-09 03:59N 54°18' W 130°21'0 0.0
2017-Oct-09 03:30N 54°18' W 130°21'0 0.0
2017-Oct-09 03:00N 54°18' W 130°21'0 0.0
2017-Oct-09 02:26N 54°18' W 130°21'0 0.0
2017-Oct-09 01:59N 54°18' W 130°21'0 0.0
2017-Oct-09 01:30N 54°18' W 130°21'0 0.0
2017-Oct-09 01:00N 54°18' W 130°21'0 0.0
2017-Oct-09 00:30N 54°18' W 130°21'0 0.0
2017-Oct-09 00:00N 54°18' W 130°21'0 0.0
2017-Oct-08 23:30N 54°18' W 130°21'0 0.0
2017-Oct-08 23:00N 54°18' W 130°21'0 0.0
2017-Oct-08 22:30N 54°18' W 130°21'0 0.0
2017-Oct-08 22:00N 54°18' W 130°21'0 0.0
2017-Oct-08 21:30N 54°18' W 130°21'0 0.0
2017-Oct-08 21:00N 54°18' W 130°21'0 0.0
2017-Oct-08 20:30N 54°18' W 130°21'0 0.0
2017-Oct-08 20:00N 54°18' W 130°21'0 0.0
2017-Oct-08 19:30N 54°18' W 130°21'0 0.0
2017-Oct-08 18:58N 54°18' W 130°21'0 0.0
2017-Oct-08 18:29N 54°18' W 130°21'0 0.0
2017-Oct-08 18:00N 54°18' W 130°21'0 0.0
2017-Oct-08 17:30N 54°18' W 130°21'0 0.0
2017-Oct-08 17:00N 54°18' W 130°21'0 0.0
2017-Oct-08 16:30N 54°18' W 130°21'0 0.0
2017-Oct-08 16:00N 54°18' W 130°21'0 0.0
2017-Oct-08 15:30N 54°18' W 130°21'0 0.0
2017-Oct-08 15:00N 54°18' W 130°21'0 0.0
2017-Oct-08 14:30N 54°18' W 130°21'0 0.0
2017-Oct-08 14:00N 54°18' W 130°21'0 0.0
2017-Oct-08 13:30N 54°18' W 130°21'0 0.0
2017-Oct-08 13:00N 54°18' W 130°21'0 0.0
2017-Oct-08 12:30N 54°18' W 130°21'0 0.0
2017-Oct-08 12:00N 54°18' W 130°21'0 0.0
2017-Oct-08 11:30N 54°18' W 130°21'0 0.0
2017-Oct-08 11:00N 54°18' W 130°21'0 0.0
2017-Oct-08 10:30N 54°18' W 130°21'0 0.0
2017-Oct-08 10:00N 54°18' W 130°21'0 0.0
2017-Oct-08 09:30N 54°18' W 130°21'0 0.0
2017-Oct-08 09:00N 54°18' W 130°21'0 0.0
2017-Oct-08 08:30N 54°18' W 130°21'0 0.0
2017-Oct-08 08:00N 54°18' W 130°21'0 0.0
2017-Oct-08 07:30N 54°18' W 130°21'0 0.0
2017-Oct-08 07:00N 54°18' W 130°21'0 0.0
2017-Oct-08 06:30N 54°18' W 130°21'0 0.0
2017-Oct-08 06:00N 54°18' W 130°21'0 0.0
2017-Oct-08 05:30N 54°18' W 130°21'0 0.0
2017-Oct-08 05:00N 54°18' W 130°21'0 0.0
2017-Oct-08 04:30N 54°18' W 130°21'0 0.0
2017-Oct-08 04:00N 54°18' W 130°21'0 0.0
2017-Oct-08 03:30N 54°18' W 130°21'0 0.0
2017-Oct-08 03:00N 54°18' W 130°21'0 0.0
2017-Oct-08 02:30N 54°18' W 130°21'0 0.0
2017-Oct-08 01:59N 54°18' W 130°21'0 0.0
2017-Oct-08 01:30N 54°18' W 130°21'0 0.0
2017-Oct-08 01:00N 54°18' W 130°21'0 0.0
2017-Oct-08 00:30N 54°18' W 130°21'0 0.0
2017-Oct-08 00:00N 54°18' W 130°21'0 0.0
2017-Oct-07 23:30N 54°18' W 130°21'0 0.0
2017-Oct-07 23:00N 54°18' W 130°21'0 0.0
2017-Oct-07 22:30N 54°18' W 130°21'0 0.0
2017-Oct-07 22:00N 54°18' W 130°21'0 0.0
2017-Oct-07 21:30N 54°18' W 130°21'0 0.0
2017-Oct-07 21:00N 54°18' W 130°21'0 0.0
2017-Oct-07 20:30N 54°18' W 130°21'0 0.0
2017-Oct-07 20:00N 54°18' W 130°21'0 0.0
2017-Oct-07 19:13N 54°18' W 130°21'0 0.0
2017-Oct-07 19:00N 54°18' W 130°21'0 0.0
2017-Oct-07 18:29N 54°18' W 130°21'0 0.0
2017-Oct-07 18:00N 54°18' W 130°21'0 0.0
2017-Oct-07 17:29N 54°18' W 130°21'0 0.0
2017-Oct-07 16:55N 54°18' W 130°21'0 0.0
2017-Oct-07 16:13N 54°18' W 130°21'0 0.0
2017-Oct-07 15:59N 54°18' W 130°21'0 0.0
2017-Oct-07 15:30N 54°18' W 130°21'0 0.0
2017-Oct-07 15:00N 54°18' W 130°21'0 0.0
2017-Oct-07 14:13N 54°18' W 130°21'0 0.0
2017-Oct-07 14:00N 54°18' W 130°21'  
Track history (hours):
 
Tides and Currents Weather Stations Pressure Air Temp Water Temp Dewpoint Dewpoint Depression Visibility Wind Speed Wind Dir Waves Ship Positions

Pacific Pilot IV

Last reported at 2017-Oct-17 13:00 UTC. Time now 2017-Oct-17 13:26 UTC.
Position N 54°18' W 130°21'.

Length 20 m.

Type: Pilot. MMSI: 316006722.

Date/timePositionNaut miles runAvg speedWind from/ knotsBaromVisibWave heightAir tempDewpointWater temp
2017-Oct-17 13:00N 54°18' W 130°21'0 0.0
2017-Oct-17 12:28N 54°18' W 130°21'0 0.0
2017-Oct-17 11:56N 54°18' W 130°21'0 0.0
2017-Oct-17 11:30N 54°18' W 130°21'0 0.0
2017-Oct-17 11:00N 54°18' W 130°21'0 0.0
2017-Oct-17 10:30N 54°18' W 130°21'0 0.0
2017-Oct-17 10:00N 54°18' W 130°21'0 0.0
2017-Oct-17 09:30N 54°18' W 130°21'0 0.0
2017-Oct-17 09:01N 54°18' W 130°21'0 0.0
2017-Oct-17 08:30N 54°18' W 130°21'0 0.0
2017-Oct-17 08:00N 54°18' W 130°21'0 0.0
2017-Oct-17 07:30N 54°18' W 130°21'0 0.0
2017-Oct-17 07:00N 54°18' W 130°21'0 0.0
2017-Oct-17 06:30N 54°18' W 130°21'0 0.0
2017-Oct-17 06:00N 54°18' W 130°21'4 8.7
2017-Oct-17 05:30N 54°13' W 130°24'918.1
2017-Oct-17 05:00N 54°16' W 130°39'918.2
2017-Oct-17 04:30N 54°19' W 130°53'4 8.4
2017-Oct-17 04:00N 54°18' W 130°47'917.1
2017-Oct-17 03:31N 54°15' W 130°33'612.9
2017-Oct-17 03:00N 54°16' W 130°22'1 2.7
2017-Oct-17 02:30N 54°18' W 130°21'0 0.0
2017-Oct-17 02:00N 54°18' W 130°21'0 0.0
2017-Oct-17 01:30N 54°18' W 130°21'0 0.0
2017-Oct-17 01:00N 54°18' W 130°21'0 0.0
2017-Oct-17 00:30N 54°18' W 130°21'1 2.2
2017-Oct-17 00:00N 54°17' W 130°22'714.3
2017-Oct-16 23:30N 54°12' W 130°31'714.0
2017-Oct-16 23:00N 54°16' W 130°22'1 2.7
2017-Oct-16 22:29N 54°18' W 130°21'0 0.0
2017-Oct-16 22:00N 54°18' W 130°21'0 0.0
2017-Oct-16 21:30N 54°18' W 130°21'0 0.0
2017-Oct-16 21:00N 54°18' W 130°21'0 0.0
2017-Oct-16 20:30N 54°18' W 130°21'0 0.0
2017-Oct-16 20:00N 54°18' W 130°21'0 0.0
2017-Oct-16 19:27N 54°18' W 130°21'0 0.0
2017-Oct-16 19:00N 54°18' W 130°21'0 0.0
2017-Oct-16 18:30N 54°18' W 130°21'0 0.0
2017-Oct-16 18:00N 54°18' W 130°21'0 0.0
2017-Oct-16 17:29N 54°18' W 130°21'0 0.0
2017-Oct-16 17:00N 54°18' W 130°21'0 0.0
2017-Oct-16 16:30N 54°18' W 130°21'0 0.0
2017-Oct-16 15:59N 54°18' W 130°21'0 0.0
2017-Oct-16 15:30N 54°18' W 130°21'0 0.0
2017-Oct-16 15:00N 54°18' W 130°21'0 0.0
2017-Oct-16 13:57N 54°18' W 130°21'0 0.0
2017-Oct-16 13:30N 54°18' W 130°21'0 0.0
2017-Oct-16 13:00N 54°18' W 130°21'0 0.0
2017-Oct-16 12:30N 54°18' W 130°21'0 0.0
2017-Oct-16 12:00N 54°18' W 130°21'0 0.0
2017-Oct-16 11:27N 54°18' W 130°21'0 0.0
2017-Oct-16 10:50N 54°18' W 130°21'0 0.0
2017-Oct-16 10:28N 54°18' W 130°21'0 0.0
2017-Oct-16 10:00N 54°18' W 130°21'0 0.0
2017-Oct-16 09:30N 54°18' W 130°21'0 0.0
2017-Oct-16 09:00N 54°18' W 130°21'0 0.0
2017-Oct-16 08:31N 54°18' W 130°21'0 0.0
2017-Oct-16 08:00N 54°18' W 130°21'0 0.0
2017-Oct-16 07:29N 54°18' W 130°21'0 0.0
2017-Oct-16 07:00N 54°18' W 130°21'0 0.0
2017-Oct-16 06:30N 54°18' W 130°21'0 0.0
2017-Oct-16 06:00N 54°18' W 130°21'0 0.0
2017-Oct-16 05:30N 54°18' W 130°21'0 0.0
2017-Oct-16 05:00N 54°18' W 130°21'0 0.0
2017-Oct-16 04:30N 54°18' W 130°21'0 0.0
2017-Oct-16 04:01N 54°18' W 130°21'0 0.0
2017-Oct-16 03:30N 54°18' W 130°21'1 2.8
2017-Oct-16 03:00N 54°19' W 130°23'714.3
2017-Oct-16 02:30N 54°18' W 130°35'815.7
2017-Oct-16 02:00N 54°16' W 130°48'4 7.6
2017-Oct-16 01:30N 54°13' W 130°46'0 0.4
2017-Oct-16 01:00N 54°12' W 130°46'0 0.0
2017-Oct-16 00:30N 54°12' W 130°46'0 0.0
2017-Oct-16 00:00N 54°12' W 130°46'0 0.0
2017-Oct-15 23:31N 54°12' W 130°46'0 0.0
2017-Oct-15 23:01N 54°12' W 130°46'0 0.0
2017-Oct-15 22:31N 54°12' W 130°46'0 0.0
2017-Oct-15 22:00N 54°12' W 130°46'3 6.7
2017-Oct-15 21:30N 54°16' W 130°47'4 7.2
2017-Oct-15 21:00N 54°18' W 130°52'612.4
2017-Oct-15 20:30N 54°15' W 130°43'612.7
2017-Oct-15 20:00N 54°13' W 130°32'612.4
2017-Oct-15 19:30N 54°12' W 130°22'612.0
2017-Oct-15 19:00N 54°18' W 130°22'0 0.5
2017-Oct-15 18:30N 54°18' W 130°21'0 0.0
2017-Oct-15 18:00N 54°18' W 130°21'0 0.0
2017-Oct-15 17:31N 54°18' W 130°21'0 0.0
2017-Oct-15 17:00N 54°18' W 130°21'2 4.1
2017-Oct-15 16:30N 54°19' W 130°19'2 4.1
2017-Oct-15 16:00N 54°18' W 130°21'0 0.0
2017-Oct-15 15:30N 54°18' W 130°21'0 0.0
2017-Oct-15 15:00N 54°18' W 130°21'6 5.9
2017-Oct-15 14:00N 54°18' W 130°31'916.1
2017-Oct-15 13:28N 54°16' W 130°46'4 9.3
2017-Oct-15 13:00N 54°19' W 130°52'714.5
2017-Oct-15 12:30N 54°15' W 130°41'816.2
2017-Oct-15 12:00N 54°14' W 130°27'510.8
2017-Oct-15 11:30N 54°18' W 130°21'0 0.1
2017-Oct-15 11:00N 54°18' W 130°21'0 0.0
2017-Oct-15 10:30N 54°18' W 130°21'0 0.0
2017-Oct-15 10:00N 54°18' W 130°21'0 0.0
2017-Oct-15 09:30N 54°18' W 130°21'0 0.0
2017-Oct-15 09:00N 54°18' W 130°21'0 0.0
2017-Oct-15 08:30N 54°18' W 130°21'0 0.0
2017-Oct-15 08:00N 54°18' W 130°21'0 0.0
2017-Oct-15 07:31N 54°18' W 130°21'0 0.0
2017-Oct-15 07:00N 54°18' W 130°21'0 0.0
2017-Oct-15 06:30N 54°18' W 130°21'0 0.0
2017-Oct-15 06:00N 54°18' W 130°21'0 0.0
2017-Oct-15 05:31N 54°18' W 130°21'0 0.0
2017-Oct-15 05:00N 54°18' W 130°21'0 0.0
2017-Oct-15 04:30N 54°18' W 130°21'0 0.0
2017-Oct-15 04:00N 54°18' W 130°21'0 0.0
2017-Oct-15 03:30N 54°18' W 130°21'0 0.0
2017-Oct-15 03:00N 54°18' W 130°21'0 0.0
2017-Oct-15 02:30N 54°18' W 130°21'0 0.1
2017-Oct-15 01:59N 54°18' W 130°21'0 0.0
2017-Oct-15 01:30N 54°18' W 130°21'0 1.0
2017-Oct-15 01:00N 54°18' W 130°22'5 9.7
2017-Oct-15 00:30N 54°19' W 130°30'612.4
2017-Oct-15 00:00N 54°19' W 130°40'612.8
2017-Oct-14 23:30N 54°19' W 130°51'510.2
2017-Oct-14 23:00N 54°16' W 130°44'612.0
2017-Oct-14 22:30N 54°15' W 130°34'713.5
2017-Oct-14 22:01N 54°14' W 130°23'4 7.9
2017-Oct-14 21:30N 54°18' W 130°21'0 0.0
2017-Oct-14 21:00N 54°18' W 130°21'0 0.0
2017-Oct-14 20:30N 54°18' W 130°21'0 0.0
2017-Oct-14 20:00N 54°18' W 130°21'0 0.0
2017-Oct-14 19:30N 54°18' W 130°21'0 0.0
2017-Oct-14 19:00N 54°18' W 130°21'0 0.0
2017-Oct-14 18:30N 54°18' W 130°21'0 0.0
2017-Oct-14 18:00N 54°18' W 130°21'0 0.0
2017-Oct-14 17:30N 54°18' W 130°21'0 0.0
2017-Oct-14 17:00N 54°18' W 130°21'0 0.0
2017-Oct-14 16:30N 54°18' W 130°21'0 0.0
2017-Oct-14 16:00N 54°18' W 130°21'0 0.0
2017-Oct-14 15:30N 54°18' W 130°21'0 0.0
2017-Oct-14 15:00N 54°18' W 130°21'0 0.0
2017-Oct-14 14:30N 54°18' W 130°21'0 0.0
2017-Oct-14 14:00N 54°18' W 130°21'0 0.0
2017-Oct-14 13:30N 54°18' W 130°21'0 0.0
2017-Oct-14 12:56N 54°18' W 130°21'0 0.0
2017-Oct-14 12:29N 54°18' W 130°21'0 0.0
2017-Oct-14 12:00N 54°18' W 130°21'0 0.0
2017-Oct-14 11:30N 54°18' W 130°21'0 0.0
2017-Oct-14 11:00N 54°18' W 130°21'0 0.0
2017-Oct-14 10:30N 54°18' W 130°21'0 0.0
2017-Oct-14 09:59N 54°18' W 130°21'0 0.0
2017-Oct-14 09:29N 54°18' W 130°21'0 0.0
2017-Oct-14 09:00N 54°18' W 130°21'0 0.0
2017-Oct-14 08:30N 54°18' W 130°21'0 0.0
2017-Oct-14 08:00N 54°18' W 130°21'0 0.0
2017-Oct-14 07:30N 54°18' W 130°21'0 0.0
2017-Oct-14 07:00N 54°18' W 130°21'0 0.0
2017-Oct-14 06:30N 54°18' W 130°21'0 0.0
2017-Oct-14 06:00N 54°18' W 130°21'0 0.0
2017-Oct-14 05:30N 54°18' W 130°21'0 0.0
2017-Oct-14 05:00N 54°18' W 130°21'0 0.0
2017-Oct-14 04:30N 54°18' W 130°21'0 0.0
2017-Oct-14 04:00N 54°18' W 130°21'0 0.0
2017-Oct-14 03:30N 54°18' W 130°21'0 0.0
2017-Oct-14 03:00N 54°18' W 130°21'0 0.0
2017-Oct-14 02:30N 54°18' W 130°21'0 0.0
2017-Oct-14 02:00N 54°18' W 130°21'0 0.0
2017-Oct-14 01:30N 54°18' W 130°21'0 0.0
2017-Oct-14 01:00N 54°18' W 130°21'0 0.0
2017-Oct-14 00:30N 54°18' W 130°21'0 0.0
2017-Oct-13 23:59N 54°18' W 130°21'0 0.0
2017-Oct-13 23:30N 54°18' W 130°21'0 0.0
2017-Oct-13 23:00N 54°18' W 130°21'0 0.0
2017-Oct-13 22:30N 54°18' W 130°21'0 0.0
2017-Oct-13 22:00N 54°18' W 130°21'2 4.1
2017-Oct-13 21:30N 54°19' W 130°24'611.5
2017-Oct-13 21:00N 54°13' W 130°25'4 8.5
2017-Oct-13 20:30N 54°13' W 130°32'510.1
2017-Oct-13 20:00N 54°15' W 130°40'610.6
2017-Oct-13 19:29N 54°18' W 130°48'1 3.0
2017-Oct-13 19:00N 54°18' W 130°46'816.5
2017-Oct-13 18:30N 54°15' W 130°33'713.6
2017-Oct-13 18:01N 54°14' W 130°21'3 5.2
2017-Oct-13 17:23N 54°18' W 130°21'0 0.0
2017-Oct-13 17:00N 54°18' W 130°21'0 0.0
2017-Oct-13 16:28N 54°18' W 130°21'0 0.1
2017-Oct-13 16:00N 54°18' W 130°21'0 0.0
2017-Oct-13 15:30N 54°18' W 130°21'0 0.0
2017-Oct-13 15:00N 54°18' W 130°21'0 0.0
2017-Oct-13 14:30N 54°18' W 130°21'0 0.0
2017-Oct-13 14:00N 54°18' W 130°21'0 0.0
2017-Oct-13 13:30N 54°18' W 130°21'0 0.0
2017-Oct-13 13:00N 54°18' W 130°21'0 0.0
2017-Oct-13 12:30N 54°18' W 130°21'0 0.0
2017-Oct-13 12:00N 54°18' W 130°21'0 0.0
2017-Oct-13 11:27N 54°18' W 130°21'0 0.0
2017-Oct-13 10:59N 54°18' W 130°21'0 0.0
2017-Oct-13 10:30N 54°18' W 130°21'0 0.0
2017-Oct-13 10:00N 54°18' W 130°21'0 0.0
2017-Oct-13 09:30N 54°18' W 130°21'0 0.0
2017-Oct-13 09:00N 54°18' W 130°21'0 0.0
2017-Oct-13 08:30N 54°18' W 130°21'0 0.0
2017-Oct-13 08:00N 54°18' W 130°21'0 0.0
2017-Oct-13 07:30N 54°18' W 130°21'0 0.0
2017-Oct-13 07:00N 54°18' W 130°21'0 0.0
2017-Oct-13 06:30N 54°18' W 130°21'0 0.0
2017-Oct-13 06:00N 54°18' W 130°21'0 0.0
2017-Oct-13 05:30N 54°18' W 130°21'0 0.0
2017-Oct-13 05:00N 54°18' W 130°21'0 0.0
2017-Oct-13 04:30N 54°18' W 130°21'0 0.0
2017-Oct-13 04:00N 54°18' W 130°21'0 0.0
2017-Oct-13 03:30N 54°18' W 130°21'0 0.0
2017-Oct-13 03:00N 54°18' W 130°21'0 0.0
2017-Oct-13 02:30N 54°18' W 130°21'0 0.0
2017-Oct-13 02:00N 54°18' W 130°21'0 0.0
2017-Oct-13 01:30N 54°18' W 130°21'0 0.0
2017-Oct-13 01:00N 54°18' W 130°21'0 0.0
2017-Oct-13 00:30N 54°18' W 130°21'0 0.0
2017-Oct-13 00:00N 54°18' W 130°21'0 0.0
2017-Oct-12 23:30N 54°18' W 130°21'0 0.0
2017-Oct-12 23:00N 54°18' W 130°21'0 0.0
2017-Oct-12 22:30N 54°18' W 130°21'0 0.0
2017-Oct-12 22:00N 54°18' W 130°21'0 0.0
2017-Oct-12 21:30N 54°18' W 130°21'0 0.0
2017-Oct-12 21:00N 54°18' W 130°21'0 0.0
2017-Oct-12 20:30N 54°18' W 130°21'0 0.0
2017-Oct-12 20:00N 54°18' W 130°21'0 0.0
2017-Oct-12 19:30N 54°18' W 130°21'0 0.0
2017-Oct-12 19:00N 54°18' W 130°21'0 0.0
2017-Oct-12 18:30N 54°18' W 130°21'0 0.0
2017-Oct-12 18:00N 54°18' W 130°21'0 0.0
2017-Oct-12 17:30N 54°18' W 130°21'0 0.0
2017-Oct-12 17:00N 54°18' W 130°21'0 0.0
2017-Oct-12 16:30N 54°18' W 130°21'0 0.0
2017-Oct-12 16:00N 54°18' W 130°21'0 0.0
2017-Oct-12 15:30N 54°18' W 130°21'0 0.0
2017-Oct-12 15:00N 54°18' W 130°21'0 0.0
2017-Oct-12 14:30N 54°18' W 130°21'0 0.0
2017-Oct-12 14:00N 54°18' W 130°21'0 0.0
2017-Oct-12 13:30N 54°18' W 130°21'0 0.0
2017-Oct-12 13:00N 54°18' W 130°21'0 0.0
2017-Oct-12 12:30N 54°18' W 130°21'0 0.0
2017-Oct-12 12:00N 54°18' W 130°21'0 0.0
2017-Oct-12 11:30N 54°18' W 130°21'0 0.0
2017-Oct-12 11:00N 54°18' W 130°21'0 0.0
2017-Oct-12 10:30N 54°18' W 130°21'0 0.0
2017-Oct-12 10:00N 54°18' W 130°21'0 0.0
2017-Oct-12 09:28N 54°18' W 130°21'0 0.0
2017-Oct-12 09:00N 54°18' W 130°21'0 0.0
2017-Oct-12 08:30N 54°18' W 130°21'0 0.0
2017-Oct-12 08:00N 54°18' W 130°21'0 0.0
2017-Oct-12 07:30N 54°18' W 130°21'0 0.0
2017-Oct-12 07:00N 54°18' W 130°21'0 0.0
2017-Oct-12 06:30N 54°18' W 130°21'0 0.0
2017-Oct-12 06:00N 54°18' W 130°21'0 0.0
2017-Oct-12 05:30N 54°18' W 130°21'0 0.0
2017-Oct-12 05:00N 54°18' W 130°21'0 0.0
2017-Oct-12 04:30N 54°18' W 130°21'0 0.0
2017-Oct-12 04:00N 54°18' W 130°21'0 0.0
2017-Oct-12 03:30N 54°18' W 130°21'0 0.0
2017-Oct-12 03:00N 54°18' W 130°21'0 0.0
2017-Oct-12 02:30N 54°18' W 130°21'0 0.0
2017-Oct-12 02:00N 54°18' W 130°21'0 0.0
2017-Oct-12 01:30N 54°18' W 130°21'0 0.0
2017-Oct-12 01:00N 54°18' W 130°21'0 0.0
2017-Oct-12 00:30N 54°18' W 130°21'0 0.0
2017-Oct-12 00:00N 54°18' W 130°21'0 0.0
2017-Oct-11 23:30N 54°18' W 130°21'0 0.0
2017-Oct-11 23:00N 54°18' W 130°21'0 0.0
2017-Oct-11 22:30N 54°18' W 130°21'0 0.0
2017-Oct-11 22:00N 54°18' W 130°21'0 0.0
2017-Oct-11 21:30N 54°18' W 130°21'0 0.0
2017-Oct-11 21:00N 54°18' W 130°21'0 0.0
2017-Oct-11 20:30N 54°18' W 130°21'0 0.0
2017-Oct-11 20:00N 54°18' W 130°21'0 0.0
2017-Oct-11 19:30N 54°18' W 130°21'0 0.0
2017-Oct-11 19:00N 54°18' W 130°21'0 0.0
2017-Oct-11 18:30N 54°18' W 130°21'0 0.0
2017-Oct-11 18:00N 54°18' W 130°21'0 0.0
2017-Oct-11 17:30N 54°18' W 130°21'0 0.0
2017-Oct-11 17:00N 54°18' W 130°21'0 0.0
2017-Oct-11 00:00N 54°18' W 130°21'0 0.0
2017-Oct-10 23:30N 54°18' W 130°21'0 0.0
2017-Oct-10 23:00N 54°18' W 130°21'0 0.0
2017-Oct-10 22:30N 54°18' W 130°21'0 0.0
2017-Oct-10 22:00N 54°18' W 130°21'0 0.0
2017-Oct-10 21:30N 54°18' W 130°21'0 0.0
2017-Oct-10 21:00N 54°18' W 130°21'0 0.0
2017-Oct-10 20:30N 54°18' W 130°21'0 0.0
2017-Oct-10 20:00N 54°18' W 130°21'0 0.0
2017-Oct-10 19:30N 54°18' W 130°21'0 0.0
2017-Oct-10 19:00N 54°18' W 130°21'0 0.0
2017-Oct-10 18:30N 54°18' W 130°21'0 0.0
2017-Oct-10 17:52N 54°18' W 130°21'0 0.0
2017-Oct-10 17:30N 54°18' W 130°21'0 0.0
2017-Oct-10 17:00N 54°18' W 130°21'0 0.0
2017-Oct-10 16:30N 54°18' W 130°21'0 0.0
2017-Oct-10 16:00N 54°18' W 130°21'0 0.0
2017-Oct-10 15:30N 54°18' W 130°21'0 0.0
2017-Oct-10 15:00N 54°18' W 130°21'0 0.0
2017-Oct-10 14:00N 54°18' W 130°21'0 0.0
2017-Oct-10 13:30N 54°18' W 130°21'0 0.0
2017-Oct-10 13:00N 54°18' W 130°21'0 0.0
2017-Oct-10 12:30N 54°18' W 130°21'0 0.0
2017-Oct-10 12:00N 54°18' W 130°21'0 0.0
2017-Oct-10 11:30N 54°18' W 130°21'0 0.0
2017-Oct-10 11:00N 54°18' W 130°21'0 0.0
2017-Oct-10 10:30N 54°18' W 130°21'0 0.0
2017-Oct-10 10:00N 54°18' W 130°21'0 0.0
2017-Oct-10 09:30N 54°18' W 130°21'0 0.0
2017-Oct-10 09:00N 54°18' W 130°21'0 0.0
2017-Oct-10 08:04N 54°18' W 130°21'0 0.0
2017-Oct-10 07:59N 54°18' W 130°21'0 0.0
2017-Oct-10 07:30N 54°18' W 130°21'0 0.0
2017-Oct-10 07:00N 54°18' W 130°21'0 0.0
2017-Oct-10 06:30N 54°18' W 130°21'0 0.0
2017-Oct-10 06:00N 54°18' W 130°21'0 0.0
2017-Oct-10 05:30N 54°18' W 130°21'0 0.0
2017-Oct-10 05:00N 54°18' W 130°21'0 0.0
2017-Oct-10 04:30N 54°18' W 130°21'0 0.0
2017-Oct-10 04:00N 54°18' W 130°21'0 0.0
2017-Oct-10 03:24N 54°18' W 130°21'0 0.0
2017-Oct-10 03:00N 54°18' W 130°21'0 0.0
2017-Oct-10 02:30N 54°18' W 130°21'0 0.0
2017-Oct-10 02:00N 54°18' W 130°21'0 0.0
2017-Oct-10 01:30N 54°18' W 130°21'0 0.0
2017-Oct-10 01:00N 54°18' W 130°21'0 0.0
2017-Oct-10 00:26N 54°18' W 130°21'0 0.0
2017-Oct-10 00:00N 54°18' W 130°21'0 0.0
2017-Oct-09 23:30N 54°18' W 130°21'0 0.0
2017-Oct-09 22:57N 54°18' W 130°21'0 0.0
2017-Oct-09 22:30N 54°18' W 130°21'0 0.0
2017-Oct-09 22:00N 54°18' W 130°21'0 0.0
2017-Oct-09 21:30N 54°18' W 130°21'0 0.0
2017-Oct-09 21:00N 54°18' W 130°21'0 0.0
2017-Oct-09 19:32N 54°18' W 130°21'0 0.0
2017-Oct-09 19:30N 54°18' W 130°21'0 0.0
2017-Oct-09 18:57N 54°18' W 130°21'0 0.0
2017-Oct-09 18:27N 54°18' W 130°21'0 0.0
2017-Oct-09 17:59N 54°18' W 130°21'0 0.0
2017-Oct-09 17:29N 54°18' W 130°21'0 0.0
2017-Oct-09 16:58N 54°18' W 130°21'0 0.0
2017-Oct-09 16:30N 54°18' W 130°21'0 0.0
2017-Oct-09 15:50N 54°18' W 130°21'0 0.0
2017-Oct-09 15:30N 54°18' W 130°21'0 0.0
2017-Oct-09 15:00N 54°18' W 130°21'0 0.0
2017-Oct-09 14:30N 54°18' W 130°21'0 0.0
2017-Oct-09 14:00N 54°18' W 130°21'0 0.0
2017-Oct-09 13:30N 54°18' W 130°21'0 0.0
2017-Oct-09 13:00N 54°18' W 130°21'0 0.0
2017-Oct-09 12:30N 54°18' W 130°21'0 0.0
2017-Oct-09 12:00N 54°18' W 130°21'0 0.0
2017-Oct-09 11:29N 54°18' W 130°21'0 0.0
2017-Oct-09 11:00N 54°18' W 130°21'0 0.0
2017-Oct-09 10:30N 54°18' W 130°21'0 0.0
2017-Oct-09 09:59N 54°18' W 130°21'0 0.0
2017-Oct-09 09:30N 54°18' W 130°21'0 0.0
2017-Oct-09 08:59N 54°18' W 130°21'0 0.0
2017-Oct-09 08:30N 54°18' W 130°21'0 0.0
2017-Oct-09 08:00N 54°18' W 130°21'0 0.0
2017-Oct-09 07:24N 54°18' W 130°21'0 0.0
2017-Oct-09 07:00N 54°18' W 130°21'0 0.0
2017-Oct-09 06:30N 54°18' W 130°21'0 0.0
2017-Oct-09 06:00N 54°18' W 130°21'0 0.0
2017-Oct-09 05:30N 54°18' W 130°21'0 0.0
2017-Oct-09 05:00N 54°18' W 130°21'0 0.0
2017-Oct-09 04:30N 54°18' W 130°21'0 0.0
2017-Oct-09 03:59N 54°18' W 130°21'0 0.0
2017-Oct-09 03:30N 54°18' W 130°21'0 0.0
2017-Oct-09 03:00N 54°18' W 130°21'0 0.0
2017-Oct-09 02:26N 54°18' W 130°21'0 0.0
2017-Oct-09 01:59N 54°18' W 130°21'0 0.0
2017-Oct-09 01:30N 54°18' W 130°21'0 0.0
2017-Oct-09 01:00N 54°18' W 130°21'0 0.0
2017-Oct-09 00:30N 54°18' W 130°21'0 0.0
2017-Oct-09 00:00N 54°18' W 130°21'0 0.0
2017-Oct-08 23:30N 54°18' W 130°21'0 0.0
2017-Oct-08 23:00N 54°18' W 130°21'0 0.0
2017-Oct-08 22:30N 54°18' W 130°21'0 0.0
2017-Oct-08 22:00N 54°18' W 130°21'0 0.0
2017-Oct-08 21:30N 54°18' W 130°21'0 0.0
2017-Oct-08 21:00N 54°18' W 130°21'0 0.0
2017-Oct-08 20:30N 54°18' W 130°21'0 0.0
2017-Oct-08 20:00N 54°18' W 130°21'0 0.0
2017-Oct-08 19:30N 54°18' W 130°21'0 0.0
2017-Oct-08 18:58N 54°18' W 130°21'0 0.0
2017-Oct-08 18:29N 54°18' W 130°21'0 0.0
2017-Oct-08 18:00N 54°18' W 130°21'0 0.0
2017-Oct-08 17:30N 54°18' W 130°21'0 0.0
2017-Oct-08 17:00N 54°18' W 130°21'0 0.0
2017-Oct-08 16:30N 54°18' W 130°21'0 0.0
2017-Oct-08 16:00N 54°18' W 130°21'0 0.0
2017-Oct-08 15:30N 54°18' W 130°21'0 0.0
2017-Oct-08 15:00N 54°18' W 130°21'0 0.0
2017-Oct-08 14:30N 54°18' W 130°21'0 0.0
2017-Oct-08 14:00N 54°18' W 130°21'0 0.0
2017-Oct-08 13:30N 54°18' W 130°21'0 0.0
2017-Oct-08 13:00N 54°18' W 130°21'0 0.0
2017-Oct-08 12:30N 54°18' W 130°21'0 0.0
2017-Oct-08 12:00N 54°18' W 130°21'0 0.0
2017-Oct-08 11:30N 54°18' W 130°21'0 0.0
2017-Oct-08 11:00N 54°18' W 130°21'0 0.0
2017-Oct-08 10:30N 54°18' W 130°21'0 0.0
2017-Oct-08 10:00N 54°18' W 130°21'0 0.0
2017-Oct-08 09:30N 54°18' W 130°21'0 0.0
2017-Oct-08 09:00N 54°18' W 130°21'0 0.0
2017-Oct-08 08:30N 54°18' W 130°21'0 0.0
2017-Oct-08 08:00N 54°18' W 130°21'0 0.0
2017-Oct-08 07:30N 54°18' W 130°21'0 0.0
2017-Oct-08 07:00N 54°18' W 130°21'0 0.0
2017-Oct-08 06:30N 54°18' W 130°21'0 0.0
2017-Oct-08 06:00N 54°18' W 130°21'0 0.0
2017-Oct-08 05:30N 54°18' W 130°21'0 0.0
2017-Oct-08 05:00N 54°18' W 130°21'0 0.0
2017-Oct-08 04:30N 54°18' W 130°21'0 0.0
2017-Oct-08 04:00N 54°18' W 130°21'0 0.0
2017-Oct-08 03:30N 54°18' W 130°21'0 0.0
2017-Oct-08 03:00N 54°18' W 130°21'0 0.0
2017-Oct-08 02:30N 54°18' W 130°21'0 0.0
2017-Oct-08 01:59N 54°18' W 130°21'0 0.0
2017-Oct-08 01:30N 54°18' W 130°21'0 0.0
2017-Oct-08 01:00N 54°18' W 130°21'0 0.0
2017-Oct-08 00:30N 54°18' W 130°21'0 0.0
2017-Oct-08 00:00N 54°18' W 130°21'0 0.0
2017-Oct-07 23:30N 54°18' W 130°21'0 0.0
2017-Oct-07 23:00N 54°18' W 130°21'0 0.0
2017-Oct-07 22:30N 54°18' W 130°21'0 0.0
2017-Oct-07 22:00N 54°18' W 130°21'0 0.0
2017-Oct-07 21:30N 54°18' W 130°21'0 0.0
2017-Oct-07 21:00N 54°18' W 130°21'0 0.0
2017-Oct-07 20:30N 54°18' W 130°21'0 0.0
2017-Oct-07 20:00N 54°18' W 130°21'0 0.0
2017-Oct-07 19:13N 54°18' W 130°21'0 0.0
2017-Oct-07 19:00N 54°18' W 130°21'0 0.0
2017-Oct-07 18:29N 54°18' W 130°21'0 0.0
2017-Oct-07 18:00N 54°18' W 130°21'0 0.0
2017-Oct-07 17:29N 54°18' W 130°21'0 0.0
2017-Oct-07 16:55N 54°18' W 130°21'0 0.0
2017-Oct-07 16:13N 54°18' W 130°21'0 0.0
2017-Oct-07 15:59N 54°18' W 130°21'0 0.0
2017-Oct-07 15:30N 54°18' W 130°21'0 0.0
2017-Oct-07 15:00N 54°18' W 130°21'0 0.0
2017-Oct-07 14:13N 54°18' W 130°21'0 0.0
2017-Oct-07 14:00N 54°18' W 130°21'  

Dump ship's entire track history